createdAt,value
2019-01-14T00:00:59.899Z,96518.20
2019-01-14T00:03:29.265Z,96525.62
2019-01-14T00:05:58.551Z,96529.24
2019-01-14T00:08:27.874Z,96521.12
2019-01-14T00:10:57.165Z,96533.08
2019-01-14T00:13:26.431Z,96531.30
2019-01-14T00:15:56.933Z,96534.92
2019-01-14T00:18:26.234Z,96536.22
2019-01-14T00:20:55.455Z,96536.70
2019-01-14T00:23:26.220Z,96531.95
2019-01-14T00:25:56.573Z,96537.80
2019-01-14T00:28:25.832Z,96541.16
2019-01-14T00:30:55.224Z,96540.67
2019-01-14T00:33:24.475Z,96549.06
2019-01-14T00:35:53.755Z,96567.30
2019-01-14T00:38:23.012Z,96574.38
2019-01-14T00:40:52.681Z,96557.53
2019-01-14T00:43:21.959Z,96560.41
2019-01-14T00:45:51.222Z,96566.88
2019-01-14T00:48:20.519Z,96574.78
2019-01-14T00:50:51.053Z,96573.16
2019-01-14T00:53:21.543Z,96568.58
2019-01-14T00:55:50.819Z,96569.72
2019-01-14T00:58:20.122Z,96572.02
2019-01-14T01:00:49.411Z,96574.00
2019-01-14T01:03:18.883Z,96575.13
2019-01-14T01:05:48.162Z,96576.56
2019-01-14T01:08:17.418Z,96585.56
2019-01-14T01:10:46.906Z,96584.48
2019-01-14T01:13:16.159Z,96591.37
2019-01-14T01:15:45.445Z,96592.80
2019-01-14T01:18:14.713Z,96597.74
2019-01-14T01:20:44.282Z,96590.45
2019-01-14T01:23:13.578Z,96605.52
2019-01-14T01:25:42.864Z,96605.30
2019-01-14T01:28:12.170Z,96613.33
2019-01-14T01:30:41.429Z,96624.37
2019-01-14T01:33:10.709Z,96626.91
2019-01-14T01:35:39.987Z,96627.08
2019-01-14T01:38:09.278Z,96627.78
2019-01-14T01:40:38.594Z,96635.59
2019-01-14T01:43:07.888Z,96641.41
2019-01-14T01:45:38.648Z,96635.77
2019-01-14T01:48:07.903Z,96646.99
2019-01-14T01:50:37.188Z,96657.16
2019-01-14T01:53:06.558Z,96649.04
2019-01-14T01:55:36.058Z,96663.30
2019-01-14T01:58:05.511Z,96661.73
2019-01-14T02:00:34.838Z,96671.42
2019-01-14T02:03:04.313Z,96682.94
2019-01-14T02:05:33.557Z,96680.67
2019-01-14T02:08:02.880Z,96677.87
2019-01-14T02:10:32.143Z,96676.52
2019-01-14T02:13:01.498Z,96677.69
2019-01-14T02:15:30.757Z,96685.77
2019-01-14T02:18:00.082Z,96702.13
2019-01-14T02:20:29.333Z,96693.86
2019-01-14T02:22:58.643Z,96701.22
2019-01-14T02:25:27.967Z,96696.03
2019-01-14T02:27:58.254Z,96707.89
2019-01-14T02:30:27.548Z,96695.63
2019-01-14T02:32:56.810Z,96700.12
2019-01-14T02:35:26.094Z,96696.53
2019-01-14T02:37:55.359Z,96699.52
2019-01-14T02:40:24.642Z,96696.84
2019-01-14T02:42:53.902Z,96696.08
2019-01-14T02:45:23.173Z,96702.91
2019-01-14T02:47:52.461Z,96704.48
2019-01-14T02:50:22.714Z,96712.36
2019-01-14T02:52:52.947Z,96716.83
2019-01-14T02:55:22.212Z,96730.36
2019-01-14T02:57:51.474Z,96734.64
2019-01-14T03:00:26.190Z,96733.26
2019-01-14T03:02:55.446Z,96744.53
2019-01-14T03:05:24.725Z,96744.33
2019-01-14T03:07:55.185Z,96756.27
2019-01-14T03:10:24.482Z,96754.88
2019-01-14T03:12:53.753Z,96760.42
2019-01-14T03:15:23.028Z,96763.00
2019-01-14T03:17:52.310Z,96761.02
2019-01-14T03:20:21.572Z,96762.58
2019-01-14T03:22:50.872Z,96768.91
2019-01-14T03:25:20.148Z,96777.15
2019-01-14T03:27:49.412Z,96782.00
2019-01-14T03:30:20.518Z,96785.42
2019-01-14T03:32:49.813Z,96795.41
2019-01-14T03:35:19.290Z,96804.83
2019-01-14T03:37:49.460Z,96810.02
2019-01-14T03:40:19.455Z,96809.77
2019-01-14T03:42:48.725Z,96800.72
2019-01-14T03:45:18.005Z,96800.08
2019-01-14T03:47:47.274Z,96800.09
2019-01-14T03:50:22.538Z,96789.05
2019-01-14T03:52:52.138Z,96796.93
2019-01-14T03:55:21.500Z,96801.69
2019-01-14T03:57:52.179Z,96796.24
2019-01-14T04:00:21.619Z,96790.84
2019-01-14T04:02:52.002Z,96797.73
2019-01-14T04:05:21.283Z,96798.31
2019-01-14T04:07:50.577Z,96811.88
2019-01-14T04:10:20.078Z,96825.64
2019-01-14T04:12:49.352Z,96821.25
2019-01-14T04:15:20.181Z,96831.63
2019-01-14T04:17:49.540Z,96849.75
2019-01-14T04:20:19.615Z,96847.95
2019-01-14T04:22:49.547Z,96852.64
2019-01-14T04:25:18.852Z,96859.41
2019-01-14T04:27:48.108Z,96863.91
2019-01-14T04:30:44.479Z,96866.17
2019-01-14T04:33:13.831Z,96869.66
2019-01-14T04:35:43.130Z,96875.86
2019-01-14T04:38:12.383Z,96874.50
2019-01-14T04:40:41.742Z,96878.34
2019-01-14T04:43:11.055Z,96879.02
2019-01-14T04:45:40.354Z,96887.12
2019-01-14T04:48:10.929Z,96881.73
2019-01-14T04:50:40.257Z,96882.18
2019-01-14T04:53:10.672Z,96890.30
2019-01-14T04:55:39.927Z,96900.66
2019-01-14T04:58:09.216Z,96909.46
2019-01-14T05:00:38.482Z,96909.00
2019-01-14T05:03:07.741Z,96906.98
2019-01-14T05:05:37.025Z,96898.98
2019-01-14T05:08:06.298Z,96889.66
2019-01-14T05:10:37.061Z,96892.59
2019-01-14T05:13:06.363Z,96904.98
2019-01-14T05:15:36.993Z,96908.41
2019-01-14T05:18:06.569Z,96904.12
2019-01-14T05:20:35.911Z,96913.58
2019-01-14T05:23:05.234Z,96921.70
2019-01-14T05:25:34.477Z,96920.69
2019-01-14T05:28:05.005Z,96926.09
2019-01-14T05:30:35.400Z,96929.58
2019-01-14T05:33:04.775Z,96940.29
2019-01-14T05:35:34.065Z,96937.24
2019-01-14T05:38:03.357Z,96955.72
2019-01-14T05:40:32.781Z,96951.89
2019-01-14T05:43:02.761Z,96961.02
2019-01-14T05:45:32.422Z,96971.95
2019-01-14T05:48:02.161Z,96972.30
2019-01-14T05:50:31.875Z,96971.28
2019-01-14T05:53:02.753Z,96991.97
2019-01-14T05:55:32.376Z,96988.35
2019-01-14T05:58:02.150Z,96986.34
2019-01-14T06:00:41.488Z,96993.64
2019-01-14T06:03:11.138Z,97000.06
2019-01-14T06:05:40.779Z,97007.70
2019-01-14T06:08:10.895Z,97012.73
2019-01-14T06:10:45.448Z,97007.27
2019-01-14T06:13:14.708Z,97018.24
2019-01-14T06:15:44.029Z,97013.30
2019-01-14T06:18:13.517Z,97024.92
2019-01-14T06:20:42.783Z,97030.63
2019-01-14T06:23:12.160Z,97031.52
2019-01-14T06:25:41.717Z,97055.47
2019-01-14T06:28:11.323Z,97049.42
2019-01-14T06:30:40.992Z,97053.69
2019-01-14T06:33:10.613Z,97054.11
2019-01-14T06:35:39.874Z,97064.68
2019-01-14T06:38:09.716Z,97068.69
2019-01-14T06:40:39.460Z,97068.78
2019-01-14T06:43:09.570Z,97075.26
2019-01-14T06:45:39.085Z,97081.16
2019-01-14T06:48:08.719Z,97082.52
2019-01-14T06:50:39.785Z,97085.12
2019-01-14T06:53:09.547Z,97094.55
2019-01-14T06:55:39.151Z,97102.77
2019-01-14T06:58:09.849Z,97113.33
2019-01-14T07:00:39.155Z,97120.09
2019-01-14T07:03:08.549Z,97124.83
2019-01-14T07:05:37.822Z,97129.55
2019-01-14T07:08:07.119Z,97132.38
2019-01-14T07:10:36.395Z,97128.89
2019-01-14T07:13:05.881Z,97147.69
2019-01-14T07:15:42.410Z,97152.67
2019-01-14T07:18:11.733Z,97150.78
2019-01-14T07:20:41.042Z,97163.81
2019-01-14T07:23:10.334Z,97174.44
2019-01-14T07:25:39.621Z,97181.66
2019-01-14T07:28:08.903Z,97180.50
2019-01-14T07:30:38.201Z,97186.38
2019-01-14T07:33:07.465Z,97185.66
2019-01-14T07:35:36.754Z,97188.83
2019-01-14T07:38:06.856Z,97189.66
2019-01-14T07:40:36.589Z,97194.46
2019-01-14T07:43:05.884Z,97188.00
2019-01-14T07:45:35.151Z,97196.64
2019-01-14T07:48:05.918Z,97203.52
2019-01-14T07:50:35.211Z,97198.16
2019-01-14T07:53:04.657Z,97204.97
2019-01-14T07:55:33.873Z,97213.27
2019-01-14T07:58:03.154Z,97210.10
2019-01-14T08:00:32.460Z,97209.02
2019-01-14T08:03:01.731Z,97211.90
2019-01-14T08:05:31.037Z,97201.79
2019-01-14T08:08:00.477Z,97200.69
2019-01-14T08:10:29.761Z,97217.41
2019-01-14T08:12:59.118Z,97214.02
2019-01-14T08:15:28.386Z,97219.64
2019-01-14T08:17:57.687Z,97228.04
2019-01-14T08:20:26.963Z,97223.14
2019-01-14T08:22:56.249Z,97228.73
2019-01-14T08:25:27.335Z,97233.03
2019-01-14T08:27:56.598Z,97241.87
2019-01-14T08:30:26.987Z,97245.09
2019-01-14T08:32:56.260Z,97253.08
2019-01-14T08:35:25.530Z,97254.23
2019-01-14T08:37:54.823Z,97255.78
2019-01-14T08:40:25.195Z,97261.50
2019-01-14T08:42:54.511Z,97265.29
2019-01-14T08:45:23.850Z,97264.22
2019-01-14T08:47:53.121Z,97262.39
2019-01-14T08:50:22.788Z,97266.22
2019-01-14T08:52:52.474Z,97265.29
2019-01-14T08:55:21.740Z,97267.81
2019-01-14T08:57:54.610Z,97269.76
2019-01-14T09:00:23.337Z,97274.19
2019-01-14T09:02:52.654Z,97276.42
2019-01-14T09:05:22.221Z,97273.72
2019-01-14T09:07:51.677Z,97284.27
2019-01-14T09:12:51.959Z,97282.30
2019-01-14T09:15:21.228Z,97287.80
2019-01-14T09:17:50.519Z,97286.78
2019-01-14T09:20:21.673Z,97289.48
2019-01-14T09:22:51.349Z,97282.49
2019-01-14T09:25:20.666Z,97280.44
2019-01-14T09:27:51.021Z,97278.66
2019-01-14T09:30:22.385Z,97290.88
2019-01-14T09:32:51.651Z,97279.16
2019-01-14T09:35:20.902Z,97276.84
2019-01-14T09:37:50.199Z,97276.12
2019-01-14T09:40:21.291Z,97281.29
2019-01-14T09:42:50.576Z,97285.43
2019-01-14T09:45:19.892Z,97295.91
2019-01-14T09:47:49.171Z,97285.70
2019-01-14T09:50:18.428Z,97279.32
2019-01-14T09:52:48.034Z,97288.11
2019-01-14T09:55:18.790Z,97287.85
2019-01-14T09:57:48.099Z,97275.41
2019-01-14T10:00:17.531Z,97285.97
2019-01-14T10:02:47.232Z,97285.31
2019-01-14T10:05:18.446Z,97278.94
2019-01-14T10:07:47.937Z,97283.69
2019-01-14T10:10:18.557Z,97291.01
2019-01-14T10:12:47.859Z,97283.45
2019-01-14T10:15:22.447Z,97295.36
2019-01-14T10:17:56.982Z,97289.23
2019-01-14T10:20:26.294Z,97299.50
2019-01-14T10:22:55.542Z,97301.49
2019-01-14T10:25:25.697Z,97303.73
2019-01-14T10:27:54.987Z,97313.61
2019-01-14T10:30:24.247Z,97325.63
2019-01-14T10:32:55.005Z,97316.38
2019-01-14T10:35:24.287Z,97309.73
2019-01-14T10:37:53.564Z,97322.66
2019-01-14T10:40:24.705Z,97316.55
2019-01-14T10:42:54.549Z,97315.33
2019-01-14T10:45:24.704Z,97314.36
2019-01-14T10:47:54.106Z,97320.00
2019-01-14T10:50:23.385Z,97323.81
2019-01-14T10:52:52.701Z,97324.23
2019-01-14T10:55:21.975Z,97314.80
2019-01-14T10:57:51.270Z,97326.91
2019-01-14T11:00:25.475Z,97333.46
2019-01-14T11:02:55.268Z,97333.16
2019-01-14T11:05:28.009Z,97335.08
2019-01-14T11:07:57.334Z,97335.28
2019-01-14T11:10:28.102Z,97328.78
2019-01-14T11:12:57.442Z,97331.16
2019-01-14T11:15:26.741Z,97325.20
2019-01-14T11:17:56.035Z,97313.11
2019-01-14T11:20:27.830Z,97321.83
2019-01-14T11:22:58.960Z,97316.00
2019-01-14T11:25:28.868Z,97309.85
2019-01-14T11:27:58.960Z,97310.09
2019-01-14T11:30:30.530Z,97303.28
2019-01-14T11:33:01.433Z,97308.03
2019-01-14T11:35:30.702Z,97308.50
2019-01-14T11:38:00.240Z,97309.81
2019-01-14T11:40:32.807Z,97327.09
2019-01-14T11:43:02.075Z,97324.78
2019-01-14T11:45:31.360Z,97327.53
2019-01-14T11:48:00.690Z,97326.03
2019-01-14T11:50:29.960Z,97326.91
2019-01-14T11:52:59.243Z,97328.59
2019-01-14T11:55:28.533Z,97337.33
2019-01-14T11:57:57.821Z,97335.33
2019-01-14T12:00:27.500Z,97333.64
2019-01-14T12:02:58.296Z,97333.93
2019-01-14T12:05:27.630Z,97342.53
2019-01-14T12:07:56.953Z,97346.47
2019-01-14T12:10:26.343Z,97339.10
2019-01-14T12:12:55.645Z,97340.29
2019-01-14T12:15:27.249Z,97343.99
2019-01-14T12:17:56.675Z,97338.57
2019-01-14T12:20:25.934Z,97334.75
2019-01-14T12:22:55.188Z,97337.84
2019-01-14T12:25:24.464Z,97338.62
2019-01-14T12:27:53.723Z,97337.42
2019-01-14T12:30:37.619Z,97341.02
2019-01-14T12:33:07.112Z,97343.44
2019-01-14T12:35:36.372Z,97345.22
2019-01-14T12:38:06.062Z,97344.60
2019-01-14T12:40:35.494Z,97351.64
2019-01-14T12:43:04.877Z,97347.15
2019-01-14T12:45:34.150Z,97345.91
2019-01-14T12:48:03.599Z,97361.00
2019-01-14T12:50:33.058Z,97375.06
2019-01-14T12:53:02.733Z,97363.44
2019-01-14T12:55:32.024Z,97367.16
2019-01-14T12:58:01.291Z,97378.86
2019-01-14T13:00:31.431Z,97375.31
2019-01-14T13:03:00.738Z,97370.36
2019-01-14T13:05:31.314Z,97378.92
2019-01-14T13:08:00.678Z,97377.31
2019-01-14T13:10:30.050Z,97372.78
2019-01-14T13:13:01.164Z,97373.34
2019-01-14T13:15:31.923Z,97387.33
2019-01-14T13:18:05.421Z,97401.37
2019-01-14T13:20:35.152Z,97404.17
2019-01-14T13:23:04.636Z,97419.88
2019-01-14T13:25:34.033Z,97420.89
2019-01-14T13:28:03.349Z,97425.70
2019-01-14T13:30:32.657Z,97427.54
2019-01-14T13:33:02.145Z,97423.77
2019-01-14T13:35:31.930Z,97437.42
2019-01-14T13:38:01.255Z,97433.84
2019-01-14T13:40:32.368Z,97451.52
2019-01-14T13:43:02.961Z,97452.70
2019-01-14T13:45:32.262Z,97452.41
2019-01-14T13:48:01.587Z,97451.44
2019-01-14T13:50:30.846Z,97451.34
2019-01-14T13:53:00.136Z,97445.77
2019-01-14T13:55:29.429Z,97453.02
2019-01-14T13:58:00.165Z,97449.47
2019-01-14T14:00:29.568Z,97450.79
2019-01-14T14:02:58.844Z,97456.78
2019-01-14T14:05:28.101Z,97445.70
2019-01-14T14:07:57.384Z,97455.34
2019-01-14T14:10:31.198Z,97461.08
2019-01-14T14:13:00.616Z,97471.80
2019-01-14T14:15:30.317Z,97467.66
2019-01-14T14:17:59.626Z,97469.02
2019-01-14T14:20:29.046Z,97478.00
2019-01-14T14:22:58.337Z,97490.31
2019-01-14T14:25:27.854Z,97488.89
2019-01-14T14:27:57.161Z,97490.35
2019-01-14T14:30:31.980Z,97483.39
2019-01-14T14:33:01.432Z,97504.88
2019-01-14T14:35:30.693Z,97510.77
2019-01-14T14:38:01.402Z,97508.22
2019-01-14T14:40:30.857Z,97520.39
2019-01-14T14:43:00.110Z,97529.13
2019-01-14T14:45:29.393Z,97525.19
2019-01-14T14:47:58.692Z,97527.89
2019-01-14T14:50:27.981Z,97535.70
2019-01-14T14:52:57.290Z,97527.09
2019-01-14T14:55:26.590Z,97541.53
2019-01-14T14:57:55.882Z,97546.53
2019-01-14T15:00:25.139Z,97547.77
2019-01-14T15:02:54.436Z,97554.53
2019-01-14T15:05:23.729Z,97559.22
2019-01-14T15:07:52.989Z,97562.32
2019-01-14T15:10:23.241Z,97571.38
2019-01-14T15:12:52.754Z,97582.19
2019-01-14T15:15:24.279Z,97578.72
2019-01-14T15:17:53.552Z,97583.38
2019-01-14T15:20:24.166Z,97598.76
2019-01-14T15:22:53.463Z,97594.47
2019-01-14T15:25:22.755Z,97592.87
2019-01-14T15:27:52.078Z,97597.86
2019-01-14T15:30:35.473Z,97597.94
2019-01-14T15:33:04.872Z,97605.73
2019-01-14T15:35:34.177Z,97610.66
2019-01-14T15:38:03.476Z,97609.86
2019-01-14T15:40:32.798Z,97614.64
2019-01-14T15:43:02.060Z,97623.07
2019-01-14T15:45:31.394Z,97631.80
2019-01-14T15:48:00.669Z,97637.21
2019-01-14T15:50:29.967Z,97641.08
2019-01-14T15:52:59.236Z,97642.86
2019-01-14T15:55:28.846Z,97650.23
2019-01-14T15:57:58.303Z,97653.18
2019-01-14T16:00:27.767Z,97654.84
2019-01-14T16:02:57.091Z,97655.48
2019-01-14T16:05:26.640Z,97663.17
2019-01-14T16:07:56.218Z,97674.38
2019-01-14T16:10:26.909Z,97671.05
2019-01-14T16:12:56.238Z,97674.03
2019-01-14T16:15:25.879Z,97674.38
2019-01-14T16:17:55.174Z,97681.02
2019-01-14T16:20:28.208Z,97684.00
2019-01-14T16:22:57.524Z,97698.16
2019-01-14T16:25:27.967Z,97697.50
2019-01-14T16:27:57.319Z,97707.02
2019-01-14T16:30:30.009Z,97710.92
2019-01-14T16:32:59.933Z,97714.18
2019-01-14T16:35:29.730Z,97715.25
2019-01-14T16:37:59.211Z,97716.34
2019-01-14T16:40:30.356Z,97717.98
2019-01-14T16:43:00.091Z,97724.63
2019-01-14T16:45:31.079Z,97733.02
2019-01-14T16:48:01.422Z,97732.77
2019-01-14T16:50:30.719Z,97740.31
2019-01-14T16:53:00.904Z,97740.56
2019-01-14T16:55:55.072Z,97737.81
2019-01-14T16:58:24.329Z,97742.59
2019-01-14T17:00:53.848Z,97750.94
2019-01-14T17:03:23.183Z,97757.93
2019-01-14T17:05:52.443Z,97769.28
2019-01-14T17:08:43.237Z,97772.17
2019-01-14T17:11:12.831Z,97777.07
2019-01-14T17:13:42.750Z,97778.17
2019-01-14T17:16:12.046Z,97795.12
2019-01-14T17:18:41.342Z,97799.56
2019-01-14T17:21:10.624Z,97807.55
2019-01-14T17:23:39.936Z,97807.27
2019-01-14T17:26:09.339Z,97805.55
2019-01-14T17:28:39.705Z,97809.84
2019-01-14T17:31:09.001Z,97823.09
2019-01-14T17:33:44.990Z,97826.25
2019-01-14T17:36:24.697Z,97839.78
2019-01-14T17:38:54.002Z,97842.81
2019-01-14T17:41:23.683Z,97847.14
2019-01-14T17:43:52.994Z,97847.11
2019-01-14T17:46:22.302Z,97858.80
2019-01-14T17:48:51.604Z,97872.39
2019-01-14T17:51:20.886Z,97882.64
2019-01-14T17:53:50.163Z,97881.23
2019-01-14T17:56:19.418Z,97884.95
2019-01-14T17:58:48.690Z,97893.14
2019-01-14T18:01:17.955Z,97890.80
2019-01-14T18:03:47.339Z,97903.39
2019-01-14T18:06:16.619Z,97907.13
2019-01-14T18:08:45.958Z,97907.63
2019-01-14T18:11:15.222Z,97907.50
2019-01-14T18:13:44.487Z,97915.75
2019-01-14T18:16:13.757Z,97918.30
2019-01-14T18:18:43.018Z,97926.70
2019-01-14T18:21:13.781Z,97930.84
2019-01-14T18:23:43.443Z,97924.95
2019-01-14T18:26:12.722Z,97920.96
2019-01-14T18:28:42.014Z,97919.18
2019-01-14T18:31:11.501Z,97929.86
2019-01-14T18:33:40.790Z,97938.19
2019-01-14T18:36:10.060Z,97942.23
2019-01-14T18:38:43.048Z,97945.94
2019-01-14T18:41:12.560Z,97953.42
2019-01-14T18:43:41.880Z,97944.59
2019-01-14T18:46:11.163Z,97937.16
2019-01-14T18:48:40.441Z,97950.70
2019-01-14T18:51:09.714Z,97964.20
2019-01-14T18:53:39.012Z,97963.84
2019-01-14T18:56:08.327Z,97964.50
2019-01-14T18:58:37.696Z,97967.89
2019-01-14T19:01:06.981Z,97970.59
2019-01-14T19:03:38.993Z,97979.84
2019-01-14T19:06:08.608Z,97951.11
2019-01-14T19:08:38.126Z,97976.88
2019-01-14T19:11:07.542Z,97984.38
2019-01-14T19:13:37.075Z,97988.05
2019-01-14T19:16:08.028Z,98009.23
2019-01-14T19:18:37.325Z,98016.00
2019-01-14T19:21:06.605Z,98011.23
2019-01-14T19:23:37.664Z,98028.29
2019-01-14T19:26:07.275Z,98036.60
2019-01-14T19:28:36.904Z,98038.73
2019-01-14T19:31:06.220Z,98043.28
2019-01-14T19:33:35.621Z,98056.81
2019-01-14T19:36:05.385Z,98058.66
2019-01-14T19:38:34.760Z,98062.16
2019-01-14T19:41:04.110Z,98061.06
2019-01-14T19:43:33.418Z,98071.55
2019-01-14T19:46:02.891Z,98070.75
2019-01-14T19:48:33.197Z,98069.45
2019-01-14T19:51:02.602Z,98066.95
2019-01-14T19:53:31.891Z,98073.44
2019-01-14T19:56:02.368Z,98070.75
2019-01-14T19:58:31.841Z,98080.31
2019-01-14T20:01:01.263Z,98084.39
2019-01-14T20:03:30.710Z,98091.12
2019-01-14T20:06:00.155Z,98099.22
2019-01-14T20:08:29.627Z,98096.22
2019-01-14T20:11:00.401Z,98115.75
2019-01-14T20:13:29.734Z,98123.66
2019-01-14T20:15:59.328Z,98117.94
2019-01-14T20:18:28.838Z,98128.61
2019-01-14T20:21:00.173Z,98129.12
2019-01-14T20:23:29.615Z,98134.91
2019-01-14T20:26:00.126Z,98136.04
2019-01-14T20:28:30.770Z,98136.19
2019-01-14T20:31:00.215Z,98139.50
2019-01-14T20:33:30.786Z,98145.88
2019-01-14T20:36:00.161Z,98148.37
2019-01-14T20:38:29.698Z,98155.30
2019-01-14T20:40:59.134Z,98162.05
2019-01-14T20:43:28.507Z,98164.01
2019-01-14T20:45:58.093Z,98165.61
2019-01-14T20:48:28.859Z,98171.66
2019-01-14T20:50:59.019Z,98173.88
2019-01-14T20:53:28.520Z,98171.22
2019-01-14T20:55:58.022Z,98175.61
2019-01-14T20:58:27.291Z,98171.57
2019-01-14T21:00:56.566Z,98174.91
2019-01-14T21:03:25.850Z,98169.27
2019-01-14T21:05:55.139Z,98169.11
2019-01-14T21:08:27.115Z,98170.04
2019-01-14T21:10:57.125Z,98160.05
2019-01-14T21:13:27.281Z,98160.52
2019-01-14T21:16:02.806Z,98167.51
2019-01-14T21:18:29.712Z,98168.48
2019-01-14T21:20:59.527Z,98179.44
2019-01-14T21:23:30.897Z,98176.33
2019-01-14T21:26:00.183Z,98173.09
2019-01-14T21:28:29.516Z,98185.50
2019-01-14T21:30:58.794Z,98182.06
2019-01-14T21:33:29.396Z,98181.72
2019-01-14T21:35:58.945Z,98190.56
2019-01-14T21:38:28.630Z,98183.83
2019-01-14T21:40:58.551Z,98185.11
2019-01-14T21:43:27.878Z,98197.05
2019-01-14T21:45:57.818Z,98190.72
2019-01-14T21:48:27.960Z,98188.31
2019-01-14T21:50:57.717Z,98189.98
2019-01-14T21:53:28.123Z,98187.87
2019-01-14T21:55:59.029Z,98194.28
2019-01-14T21:58:28.759Z,98195.95
2019-01-14T22:00:58.182Z,98209.19
2019-01-14T22:03:27.475Z,98202.87
2019-01-14T22:05:56.802Z,98206.16
2019-01-14T22:08:27.605Z,98201.63
2019-01-14T22:10:56.967Z,98189.89
2019-01-14T22:13:27.056Z,98190.28
2019-01-14T22:15:56.400Z,98190.50
2019-01-14T22:18:26.111Z,98189.19
2019-01-14T22:20:55.451Z,98197.69
2019-01-14T22:23:24.815Z,98207.91
2019-01-14T22:25:54.103Z,98199.96
2019-01-14T22:28:25.184Z,98204.13
2019-01-14T22:30:54.474Z,98202.56
2019-01-14T22:33:25.675Z,98206.05
2019-01-14T22:35:54.976Z,98207.95
2019-01-14T22:38:24.287Z,98206.56
2019-01-14T22:43:40.822Z,98204.70
2019-01-14T22:46:10.181Z,98198.52
2019-01-14T22:48:40.537Z,98203.88
2019-01-14T22:51:09.830Z,98203.23
2019-01-14T22:53:39.114Z,98210.13
2019-01-14T22:56:08.402Z,98205.28
2019-01-14T22:58:38.258Z,98205.60
2019-01-14T23:01:37.066Z,98210.80
2019-01-14T23:04:06.561Z,98211.31
2019-01-14T23:06:36.017Z,98221.02
2019-01-14T23:09:08.513Z,98222.82
2019-01-14T23:11:37.886Z,98217.52
2019-01-14T23:14:07.295Z,98222.85
2019-01-14T23:16:38.569Z,98222.30
2019-01-14T23:19:07.860Z,98219.61
2019-01-14T23:21:37.111Z,98227.34
2019-01-14T23:24:06.439Z,98242.99
2019-01-14T23:26:36.030Z,98225.55
2019-01-14T23:29:05.532Z,98233.08
2019-01-14T23:31:35.058Z,98241.45
2019-01-14T23:34:04.663Z,98245.42
2019-01-14T23:36:35.026Z,98241.96
2019-01-14T23:39:07.123Z,98249.47
2019-01-14T23:41:36.432Z,98251.49
2019-01-14T23:44:06.105Z,98253.45
2019-01-14T23:46:35.401Z,98250.50
2019-01-14T23:49:04.876Z,98264.86
2019-01-14T23:51:34.167Z,98259.95
2019-01-14T23:54:03.430Z,98269.20
2019-01-14T23:56:32.674Z,98259.15
2019-01-14T23:59:01.965Z,98265.63
